Anucino, Russia

1:20 PM VLAT on October 02, 2014 (GMT +1100)
Knevichi | Change Station
CLOSE
Current Station
Airport
Location: Vladivostok,
Elevation: 46 ft
Nearby Weather Stations

Elev 46 ft 43.40 °N, 132.15 °E | Updated 20 minutes ago

Overcast
Overcast
48 °F
Feels Like 48 °F
N
0
Wind Variable Wind from North

Today
High -- | Low -- °F
--% Chance of Precip.
Yesterday
High -- | Low -- °F
Precip. -- in
8:05 AM 7:47 PM
First Quarter, 53% visible
Pressure 29.95 in
Visibility 6.2 miles
Clouds Overcast 4000 ft
Dew Point 45 °F
Humidity 87%
Rainfall 0.00 in
Snow Depth Not available.
UV 2 out of 12
Pollen Not available.
Air Quality Not available.
Flu Activity Not available.
METAR UHWW 020200Z 00000MPS 9999 OVC040 09/07 Q1014 NOSIG RMK QFE759/1012 2519//65

More Conditions Fewer Conditions

Pressure 29.95 in
Visibility 6.2 miles
Clouds Overcast 4000 ft
Dew Point 45 °F
Humidity 87%
Rainfall 0.00 in
Snow Depth Not available.
UV 2 out of 12
Pollen Not available.
Air Quality Not available.
Flu Activity Not available.
METAR UHWW 020200Z 00000MPS 9999 OVC040 09/07 Q1014 NOSIG RMK QFE759/1012 2519//65

More Conditions Fewer Conditions

10-Day Weather Forecast

Almanac

Astronomy

Oct. 02, 2014 Rise Set
Actual Time 8:05 AM VLAT 7:47 PM VLAT
Civil Twilight 7:37 AM VLAT 8:16 PM VLAT
Nautical Twilight 7:03 AM VLAT 8:49 PM VLAT
Astronomical Twilight 6:29 AM VLAT 9:23 PM VLAT
Moon 3:34 PM VLAT 12:33 AM VLAT
Length of Visible Light 12h 39m
Length of Day
11h 42m
Tomorrow will be 3m 0s shorter.
First Quarter, 53% of the Moon is Illuminated
Oct 1
First Quarter
Oct 8
Full
Oct 15
Last Quarter
Oct 23
New
Oct 30
First Quarter

Yesterday's Extremes

Country Highs Country Lows

Community

WunderPhotos

Upload Photos

1,758,142 photos uploaded!

WunderBlogs® & News

Nearby

Snow Depth

Not available.

Earthquake Activity

City Distance Mag. Time & Date
No recent earthquake activity has been reported nearby.
Minimum magnitude displayed is 2.5.

Coastal Water Temperatures

Place Temperature
No Stations Reporting

Nearby Weather Stations